Time;durP1;ratioP1;P1;durP2;ratioP2;P2;SDS_P1;SDS_P2;PMS_P1;PMS_P2;Temp;Humidity;BMP_temperature;BMP_pressure;BME280_temperature;BME280_humidity;BME280_pressure;Samples;Min_cycle;Max_cycle;Signal;HPM_P1;HPM_P2
2021/10/10 00:00:27;;;;;;;;;;;8.20;51.20;;;;;;4358645;32;20051;-37
2021/10/10 00:02:53;;;;;;;;;;;8.10;51.10;;;;;;4358295;32;19986;-37
2021/10/10 00:05:19;;;;;;;;;;;8.10;51.20;;;;;;4345042;32;19973;-38
2021/10/10 00:07:45;;;;;;;;;;;8.10;51.40;;;;;;4358599;32;19973;-37
2021/10/10 00:10:12;;;;;;;;;;;8.10;51.50;;;;;;4358350;32;20057;-38
2021/10/10 00:12:38;;;;;;;;;;;8.10;51.80;;;;;;4358549;32;19965;-38
2021/10/10 00:15:06;;;;;;;;;;;8.10;51.80;;;;;;4358756;32;19981;-38
2021/10/10 00:17:32;;;;;;;;;;;8.00;51.80;;;;;;4358381;32;20488;-38
2021/10/10 00:19:59;;;;;;;;;;;8.00;51.70;;;;;;4358247;32;20078;-37
2021/10/10 00:22:25;;;;;;;;;;;8.00;51.70;;;;;;4358651;32;19954;-37
2021/10/10 00:24:53;;;;;;;;;;;8.00;51.90;;;;;;4358552;32;19967;-37
2021/10/10 00:27:19;;;;;;;;;;;8.00;51.90;;;;;;4358163;32;20092;-38
2021/10/10 00:29:45;;;;;;;;;;;7.90;51.90;;;;;;4358320;32;20151;-37
2021/10/10 00:32:12;;;;;;;;;;;7.90;52.10;;;;;;4360393;32;19978;-38
2021/10/10 00:34:38;;;;;;;;;;;7.90;52.40;;;;;;4361318;32;19978;-38
2021/10/10 00:37:04;;;;;;;;;;;7.90;52.50;;;;;;4361705;32;20388;-38
2021/10/10 00:39:30;;;;;;;;;;;7.90;52.60;;;;;;4361204;32;19966;-37
2021/10/10 00:41:58;;;;;;;;;;;7.90;52.60;;;;;;4361218;32;19978;-37
2021/10/10 00:44:25;;;;;;;;;;;7.90;52.50;;;;;;4360803;32;19959;-38
2021/10/10 00:46:51;;;;;;;;;;;7.90;52.40;;;;;;4347450;32;19988;-37
2021/10/10 00:49:17;;;;;;;;;;;7.90;52.40;;;;;;4360872;32;19977;-38
2021/10/10 00:51:44;;;;;;;;;;;7.90;52.40;;;;;;4361113;32;19963;-38
2021/10/10 00:54:10;;;;;;;;;;;7.90;52.30;;;;;;4361092;32;19974;-38
2021/10/10 00:56:36;;;;;;;;;;;7.90;52.20;;;;;;4360045;32;19971;-38
2021/10/10 00:59:02;;;;;;;;;;;7.90;52.10;;;;;;4359356;32;19966;-37
2021/10/10 01:01:29;;;;;;;;;;;7.90;52.00;;;;;;4359368;32;20077;-37
2021/10/10 01:03:55;;;;;;;;;;;7.90;52.00;;;;;;4360479;32;20397;-38
2021/10/10 01:06:21;;;;;;;;;;;7.90;52.10;;;;;;4359163;32;19975;-36
2021/10/10 01:08:47;;;;;;;;;;;7.80;52.20;;;;;;4359187;32;19973;-39
2021/10/10 01:11:13;;;;;;;;;;;7.70;52.10;;;;;;4360649;32;20403;-36
2021/10/10 01:13:45;;;;;;;;;;;7.70;52.20;;;;;;4360494;32;19961;-38
2021/10/10 01:16:11;;;;;;;;;;;7.70;53.00;;;;;;4358907;32;20046;-36
2021/10/10 01:18:37;;;;;;;;;;;7.70;52.60;;;;;;4360723;32;19955;-38
2021/10/10 01:21:03;;;;;;;;;;;7.70;52.70;;;;;;4358923;32;19978;-38
2021/10/10 01:23:30;;;;;;;;;;;7.60;52.60;;;;;;4360362;32;20511;-37
2021/10/10 01:25:56;;;;;;;;;;;7.60;52.50;;;;;;4360460;32;20098;-37
2021/10/10 01:28:22;;;;;;;;;;;7.70;52.50;;;;;;4360342;32;20355;-37
2021/10/10 01:30:48;;;;;;;;;;;7.70;52.40;;;;;;4360412;32;19962;-37
2021/10/10 01:33:14;;;;;;;;;;;7.60;52.30;;;;;;4360519;32;19963;-38
2021/10/10 01:35:41;;;;;;;;;;;7.60;52.20;;;;;;4360656;32;19981;-37
2021/10/10 01:38:07;;;;;;;;;;;7.60;52.20;;;;;;4360559;32;19970;-38
2021/10/10 01:40:34;;;;;;;;;;;7.60;52.10;;;;;;4360237;32;19982;-38
2021/10/10 01:43:04;;;;;;;;;;;7.60;52.10;;;;;;4359346;32;20384;-38
2021/10/10 01:45:30;;;;;;;;;;;7.60;52.00;;;;;;4360269;32;20066;-37
2021/10/10 01:47:56;;;;;;;;;;;7.60;52.00;;;;;;4360656;32;19970;-37
2021/10/10 01:50:22;;;;;;;;;;;7.60;52.30;;;;;;4360423;32;19974;-38
2021/10/10 01:52:51;;;;;;;;;;;7.50;52.60;;;;;;4359936;32;20012;-38
2021/10/10 01:55:18;;;;;;;;;;;7.50;52.80;;;;;;4359936;32;20051;-37
2021/10/10 01:57:45;;;;;;;;;;;7.50;53.10;;;;;;4360283;32;20403;-38
2021/10/10 02:00:11;;;;;;;;;;;7.50;53.60;;;;;;4360353;32;19989;-38
2021/10/10 02:02:38;;;;;;;;;;;7.40;54.00;;;;;;4360281;32;19966;-38
2021/10/10 02:05:05;;;;;;;;;;;7.40;54.10;;;;;;4359923;32;19982;-36
2021/10/10 02:07:31;;;;;;;;;;;7.50;54.10;;;;;;4359800;32;20027;-37
2021/10/10 02:09:57;;;;;;;;;;;7.50;53.90;;;;;;4346126;32;19989;-37
2021/10/10 02:12:24;;;;;;;;;;;7.50;54.40;;;;;;4360155;32;20051;-37
2021/10/10 02:14:50;;;;;;;;;;;7.50;53.50;;;;;;4313036;33;20036;-39
2021/10/10 02:17:16;;;;;;;;;;;7.60;53.50;;;;;;4301119;33;20016;-38
2021/10/10 02:19:42;;;;;;;;;;;7.60;53.30;;;;;;4300745;33;20513;-37
2021/10/10 02:22:09;;;;;;;;;;;7.60;53.20;;;;;;4313036;33;19978;-38
2021/10/10 02:24:35;;;;;;;;;;;7.60;53.10;;;;;;4313277;33;19963;-37
2021/10/10 02:27:01;;;;;;;;;;;7.70;53.10;;;;;;4301013;33;19983;-37
2021/10/10 02:29:28;;;;;;;;;;;7.70;53.60;;;;;;4313170;33;20058;-37
2021/10/10 02:31:55;;;;;;;;;;;7.60;54.10;;;;;;4312736;33;20173;-37
2021/10/10 02:34:21;;;;;;;;;;;7.60;54.10;;;;;;4313090;33;19990;-38
2021/10/10 02:36:47;;;;;;;;;;;7.60;54.20;;;;;;4300862;33;19994;-37
2021/10/10 02:39:14;;;;;;;;;;;7.60;54.40;;;;;;4313453;33;20061;-37
2021/10/10 02:41:40;;;;;;;;;;;7.60;54.30;;;;;;4313017;33;19983;-37
2021/10/10 02:44:06;;;;;;;;;;;7.60;54.30;;;;;;4312753;33;19967;-37
2021/10/10 02:46:32;;;;;;;;;;;7.70;54.10;;;;;;4358275;32;19978;-37
2021/10/10 02:49:00;;;;;;;;;;;7.70;54.00;;;;;;4374979;32;20029;-37
2021/10/10 02:51:26;;;;;;;;;;;7.70;53.70;;;;;;4374221;32;19972;-37
2021/10/10 02:53:52;;;;;;;;;;;7.70;53.70;;;;;;4373653;32;19978;-37
2021/10/10 02:56:19;;;;;;;;;;;7.70;53.70;;;;;;4374110;32;20402;-37
2021/10/10 02:58:45;;;;;;;;;;;7.70;53.70;;;;;;4374496;32;19974;-38
2021/10/10 03:01:11;;;;;;;;;;;7.70;53.60;;;;;;4374042;32;20468;-37
2021/10/10 03:03:37;;;;;;;;;;;7.70;53.70;;;;;;4373980;32;20113;-37
2021/10/10 03:06:03;;;;;;;;;;;7.70;53.70;;;;;;4374468;32;20012;-38
2021/10/10 03:08:30;;;;;;;;;;;7.70;53.70;;;;;;4374002;32;19969;-38
2021/10/10 03:10:56;;;;;;;;;;;7.70;53.60;;;;;;4374376;32;19963;-36
2021/10/10 03:13:22;;;;;;;;;;;7.60;53.60;;;;;;4360058;32;20621;-36
2021/10/10 03:15:48;;;;;;;;;;;7.60;53.70;;;;;;4374073;32;19965;-37
2021/10/10 03:18:14;;;;;;;;;;;7.60;53.80;;;;;;4374229;32;19967;-37
2021/10/10 03:20:41;;;;;;;;;;;7.60;53.90;;;;;;4373812;32;20038;-38
2021/10/10 03:23:07;;;;;;;;;;;7.60;53.80;;;;;;4359449;32;20425;-38
2021/10/10 03:25:33;;;;;;;;;;;7.60;53.80;;;;;;4373645;32;20369;-39
2021/10/10 03:27:59;;;;;;;;;;;7.60;53.90;;;;;;4373996;32;19985;-38
2021/10/10 03:30:25;;;;;;;;;;;7.60;54.00;;;;;;4373414;32;19968;-38
2021/10/10 03:32:51;;;;;;;;;;;7.60;54.10;;;;;;4373814;32;19962;-39
2021/10/10 03:35:18;;;;;;;;;;;7.60;54.10;;;;;;4373698;32;20351;-36
2021/10/10 03:37:44;;;;;;;;;;;7.60;54.10;;;;;;4373926;32;19970;-38
2021/10/10 03:40:11;;;;;;;;;;;7.70;54.20;;;;;;4373844;32;20046;-37
2021/10/10 03:42:38;;;;;;;;;;;7.80;54.40;;;;;;4373525;32;20006;-37
2021/10/10 03:45:07;;;;;;;;;;;7.90;54.50;;;;;;4373396;32;20575;-38
2021/10/10 03:47:33;;;;;;;;;;;8.00;54.80;;;;;;4359076;32;19994;-37
2021/10/10 03:50:03;;;;;;;;;;;8.10;54.90;;;;;;4358560;32;19984;-38
2021/10/10 03:52:29;;;;;;;;;;;8.30;55.00;;;;;;4358296;32;19973;-41
2021/10/10 03:57:25;;;;;;;;;;;8.60;54.80;;;;;;4358540;32;19970;-37
2021/10/10 03:59:59;;;;;;;;;;;8.80;54.70;;;;;;4358485;32;20411;-37
2021/10/10 04:02:26;;;;;;;;;;;9.00;54.50;;;;;;4358513;32;20059;-39
2021/10/10 04:04:53;;;;;;;;;;;9.10;54.30;;;;;;4358178;32;19994;-39
2021/10/10 04:07:20;;;;;;;;;;;9.30;54.10;;;;;;4360916;32;20378;-39
2021/10/10 04:09:46;;;;;;;;;;;9.40;54.00;;;;;;4361983;32;20422;-38
2021/10/10 04:12:12;;;;;;;;;;;9.50;54.10;;;;;;4361620;32;19990;-39
2021/10/10 04:14:38;;;;;;;;;;;9.70;54.40;;;;;;4347954;32;19959;-38
2021/10/10 04:17:05;;;;;;;;;;;9.80;54.50;;;;;;4361407;32;19959;-38
2021/10/10 04:19:31;;;;;;;;;;;10.00;54.40;;;;;;4361311;32;19994;-39
2021/10/10 04:21:58;;;;;;;;;;;10.10;54.20;;;;;;4361791;32;20051;-39
2021/10/10 04:24:24;;;;;;;;;;;10.30;53.90;;;;;;4361565;32;20041;-38
2021/10/10 04:26:50;;;;;;;;;;;10.40;53.70;;;;;;4361243;32;20461;-38
2021/10/10 04:29:17;;;;;;;;;;;10.60;53.50;;;;;;4361396;32;19978;-38
2021/10/10 04:31:43;;;;;;;;;;;10.80;53.60;;;;;;4361288;32;20062;-38
2021/10/10 04:34:11;;;;;;;;;;;11.00;53.70;;;;;;4361213;32;19958;-39
2021/10/10 04:36:38;;;;;;;;;;;11.30;54.20;;;;;;4361281;32;20383;-38
2021/10/10 04:39:04;;;;;;;;;;;11.70;54.50;;;;;;4361235;32;19976;-38
2021/10/10 04:41:31;;;;;;;;;;;12.20;54.50;;;;;;4361283;32;19977;-39
2021/10/10 04:43:57;;;;;;;;;;;12.70;54.20;;;;;;4360887;32;19977;-38
2021/10/10 04:46:23;;;;;;;;;;;13.30;53.80;;;;;;4368717;32;19992;-38
2021/10/10 04:48:49;;;;;;;;;;;13.90;53.30;;;;;;4361902;32;19970;-39
2021/10/10 04:51:15;;;;;;;;;;;14.40;52.80;;;;;;4376012;32;19989;-38
2021/10/10 04:53:42;;;;;;;;;;;15.00;52.20;;;;;;4376200;32;20009;-39
2021/10/10 04:56:08;;;;;;;;;;;15.50;51.50;;;;;;4376179;32;19974;-38
2021/10/10 04:58:34;;;;;;;;;;;15.90;50.60;;;;;;4375595;32;19997;-37
2021/10/10 05:01:00;;;;;;;;;;;16.30;50.00;;;;;;4375592;32;20058;-38
2021/10/10 05:03:26;;;;;;;;;;;16.70;48.90;;;;;;4375787;32;19970;-37
2021/10/10 05:05:52;;;;;;;;;;;17.00;48.30;;;;;;4362094;32;19992;-38
2021/10/10 05:08:18;;;;;;;;;;;17.30;47.60;;;;;;4362285;32;19968;-37
2021/10/10 05:10:45;;;;;;;;;;;17.60;47.10;;;;;;4375551;32;19974;-37
2021/10/10 05:13:12;;;;;;;;;;;17.90;46.70;;;;;;4375619;32;20427;-36
2021/10/10 05:15:38;;;;;;;;;;;18.30;46.10;;;;;;4375685;32;19985;-37
2021/10/10 05:18:04;;;;;;;;;;;18.60;44.90;;;;;;4375392;32;20127;-36
2021/10/10 05:20:30;;;;;;;;;;;18.80;44.10;;;;;;4375506;32;19957;-37
2021/10/10 05:22:56;;;;;;;;;;;19.00;43.80;;;;;;4375517;32;19961;-37
2021/10/10 05:25:22;;;;;;;;;;;19.30;43.60;;;;;;4376094;32;20009;-38
2021/10/10 05:27:48;;;;;;;;;;;19.50;43.10;;;;;;4375356;32;20020;-38
2021/10/10 05:30:14;;;;;;;;;;;19.70;42.80;;;;;;4375774;32;20013;-38
2021/10/10 05:32:41;;;;;;;;;;;20.00;42.30;;;;;;4375044;32;19969;-38
2021/10/10 05:35:07;;;;;;;;;;;20.20;41.90;;;;;;4375358;32;19965;-38
2021/10/10 05:37:33;;;;;;;;;;;20.30;41.00;;;;;;4375398;32;20398;-40
2021/10/10 05:39:59;;;;;;;;;;;20.50;40.50;;;;;;4374916;32;19970;-38
2021/10/10 05:42:25;;;;;;;;;;;20.60;40.30;;;;;;4375332;32;20046;-38
2021/10/10 05:44:51;;;;;;;;;;;20.80;40.00;;;;;;4375307;32;20540;-37
2021/10/10 05:47:18;;;;;;;;;;;21.00;39.60;;;;;;4361831;32;20122;-37
2021/10/10 05:49:44;;;;;;;;;;;21.20;39.00;;;;;;4360161;32;19977;-37
2021/10/10 05:52:10;;;;;;;;;;;21.40;39.10;;;;;;4360399;32;19984;-38
2021/10/10 05:54:38;;;;;;;;;;;21.50;37.90;;;;;;4359901;32;20389;-37
2021/10/10 05:57:13;;;;;;;;;;;21.60;37.50;;;;;;4346404;32;20005;-37
2021/10/10 05:59:40;;;;;;;;;;;21.80;37.70;;;;;;4360114;32;19974;-37
2021/10/10 06:02:06;;;;;;;;;;;22.00;37.60;;;;;;4359774;32;19974;-38
2021/10/10 06:04:32;;;;;;;;;;;22.20;37.10;;;;;;4359654;32;19969;-37
2021/10/10 06:06:58;;;;;;;;;;;22.40;36.60;;;;;;4360119;32;20054;-38
2021/10/10 06:09:24;;;;;;;;;;;22.60;36.30;;;;;;4360281;32;19974;-38
2021/10/10 06:11:51;;;;;;;;;;;22.70;35.90;;;;;;4360060;32;20464;-37
2021/10/10 06:14:17;;;;;;;;;;;22.80;35.70;;;;;;4359931;32;20450;-37
2021/10/10 06:16:43;;;;;;;;;;;22.90;35.20;;;;;;4360021;32;20373;-39
2021/10/10 06:19:09;;;;;;;;;;;22.90;34.70;;;;;;4359833;32;19958;-38
2021/10/10 06:21:35;;;;;;;;;;;23.00;34.50;;;;;;4359935;32;20421;-37
2021/10/10 06:24:02;;;;;;;;;;;23.00;34.30;;;;;;4359756;32;19955;-38
2021/10/10 06:26:28;;;;;;;;;;;23.10;34.10;;;;;;4359776;32;19966;-38
2021/10/10 06:28:54;;;;;;;;;;;23.00;33.60;;;;;;4359487;32;20403;-38
2021/10/10 06:31:20;;;;;;;;;;;23.00;33.70;;;;;;4359446;32;20057;-38
2021/10/10 06:33:47;;;;;;;;;;;23.00;34.00;;;;;;4359229;32;20453;-38
2021/10/10 06:36:19;;;;;;;;;;;23.20;33.90;;;;;;4359367;32;20471;-38
2021/10/10 06:38:47;;;;;;;;;;;23.40;33.60;;;;;;4359425;32;19970;-37
2021/10/10 06:41:13;;;;;;;;;;;23.40;32.60;;;;;;4359696;32;19969;-38
2021/10/10 06:43:40;;;;;;;;;;;23.50;32.70;;;;;;4359657;32;20045;-38
2021/10/10 06:46:06;;;;;;;;;;;23.60;32.60;;;;;;4365660;32;19974;-38
2021/10/10 06:48:32;;;;;;;;;;;23.70;32.20;;;;;;4374397;32;19966;-38
2021/10/10 06:50:58;;;;;;;;;;;23.80;32.00;;;;;;4374653;32;20134;-37
2021/10/10 06:53:24;;;;;;;;;;;23.80;31.70;;;;;;4374187;32;20468;-37
2021/10/10 06:55:50;;;;;;;;;;;23.80;31.80;;;;;;4374199;32;19969;-38
2021/10/10 06:58:22;;;;;;;;;;;23.90;31.30;;;;;;4374099;32;19969;-38
2021/10/10 07:00:48;;;;;;;;;;;24.00;31.40;;;;;;4374499;32;19970;-37
2021/10/10 07:03:14;;;;;;;;;;;24.20;31.20;;;;;;4373760;32;20054;-39
2021/10/10 07:05:40;;;;;;;;;;;24.40;30.90;;;;;;4374193;32;20510;-38
2021/10/10 07:08:06;;;;;;;;;;;24.50;30.00;;;;;;4373664;32;19965;-39
2021/10/10 07:10:32;;;;;;;;;;;24.60;30.00;;;;;;4374015;32;20404;-39
2021/10/10 07:12:58;;;;;;;;;;;24.50;29.60;;;;;;4356274;32;19982;-39
2021/10/10 07:15:25;;;;;;;;;;;24.30;29.60;;;;;;4357128;32;20427;-38
2021/10/10 07:17:59;;;;;;;;;;;24.20;29.70;;;;;;4356759;32;19972;-38
2021/10/10 07:20:39;;;;;;;;;;;24.10;29.80;;;;;;4356306;32;19973;-37
2021/10/10 07:25:56;;;;;;;;;;;24.10;29.90;;;;;;4335727;32;19986;-38
2021/10/10 07:28:22;;;;;;;;;;;24.20;29.70;;;;;;4356379;32;19958;-38
2021/10/10 07:30:48;;;;;;;;;;;24.30;29.60;;;;;;4356330;32;20422;-38
2021/10/10 07:33:15;;;;;;;;;;;24.30;29.30;;;;;;4356128;32;20057;-37
2021/10/10 07:35:42;;;;;;;;;;;24.20;29.50;;;;;;4356059;32;19968;-38
2021/10/10 07:38:08;;;;;;;;;;;24.30;30.10;;;;;;4356609;32;20042;-37
2021/10/10 07:40:34;;;;;;;;;;;24.40;29.70;;;;;;4356043;32;20411;-38
2021/10/10 07:43:00;;;;;;;;;;;24.50;29.50;;;;;;4356254;32;19972;-38
2021/10/10 07:45:26;;;;;;;;;;;24.50;30.00;;;;;;4354364;32;20367;-38
2021/10/10 07:47:55;;;;;;;;;;;24.50;29.00;;;;;;4341441;33;20001;-38
2021/10/10 07:50:22;;;;;;;;;;;24.40;29.20;;;;;;4349390;32;19970;-38
2021/10/10 07:52:48;;;;;;;;;;;24.10;28.90;;;;;;4358903;32;20488;-38
2021/10/10 07:55:15;;;;;;;;;;;23.90;28.90;;;;;;4358448;32;20093;-38
2021/10/10 07:57:41;;;;;;;;;;;23.80;29.70;;;;;;4358617;32;19973;-38
2021/10/10 08:00:09;;;;;;;;;;;23.70;29.20;;;;;;4332637;32;20047;-38
2021/10/10 08:02:58;;;;;;;;;;;23.70;29.30;;;;;;4358371;32;19986;-38
2021/10/10 08:05:25;;;;;;;;;;;23.80;29.30;;;;;;4358715;32;20098;-38
2021/10/10 08:07:51;;;;;;;;;;;23.80;29.10;;;;;;4358325;32;19970;-37
2021/10/10 08:10:18;;;;;;;;;;;23.90;29.30;;;;;;4358390;32;19969;-38
2021/10/10 08:12:44;;;;;;;;;;;24.00;29.10;;;;;;4344275;32;20052;-37
2021/10/10 08:15:10;;;;;;;;;;;24.10;29.00;;;;;;4358404;32;19962;-37
2021/10/10 08:17:36;;;;;;;;;;;24.20;28.90;;;;;;4358143;32;19977;-38
2021/10/10 08:20:04;;;;;;;;;;;24.30;28.50;;;;;;4326115;33;20092;-39
2021/10/10 08:22:33;;;;;;;;;;;24.20;28.50;;;;;;4326927;33;20046;-39
2021/10/10 08:25:00;;;;;;;;;;;24.10;28.30;;;;;;4326520;33;19978;-38
2021/10/10 08:27:26;;;;;;;;;;;23.90;28.40;;;;;;4326665;33;19974;-38
2021/10/10 08:29:52;;;;;;;;;;;23.90;28.50;;;;;;4326098;33;20011;-38
2021/10/10 08:32:19;;;;;;;;;;;23.90;28.50;;;;;;4326271;33;19983;-38
2021/10/10 08:34:45;;;;;;;;;;;23.90;28.40;;;;;;4326005;33;19994;-38
2021/10/10 08:37:11;;;;;;;;;;;23.70;28.30;;;;;;4326186;33;20047;-38
2021/10/10 08:39:37;;;;;;;;;;;23.60;28.60;;;;;;4326021;33;19978;-39
2021/10/10 08:42:04;;;;;;;;;;;23.50;28.70;;;;;;4326152;33;20046;-39
2021/10/10 08:44:39;;;;;;;;;;;23.50;28.80;;;;;;4284840;33;19980;-38
2021/10/10 08:47:07;;;;;;;;;;;23.60;28.90;;;;;;4308667;33;19986;-38
2021/10/10 08:49:34;;;;;;;;;;;23.90;28.90;;;;;;4311964;33;20448;-39
2021/10/10 08:52:03;;;;;;;;;;;24.00;28.70;;;;;;4288158;33;20404;-39
2021/10/10 08:54:29;;;;;;;;;;;24.20;28.60;;;;;;4314282;33;19975;-39
2021/10/10 08:56:56;;;;;;;;;;;24.40;28.40;;;;;;4321550;33;20006;-38
2021/10/10 08:59:24;;;;;;;;;;;24.50;28.20;;;;;;4343494;33;19986;-39
2021/10/10 09:01:50;;;;;;;;;;;24.50;27.90;;;;;;4343560;33;19978;-37
2021/10/10 09:04:17;;;;;;;;;;;24.30;28.00;;;;;;4331167;33;19982;-39
2021/10/10 09:06:43;;;;;;;;;;;24.30;27.90;;;;;;4331383;33;20068;-38
2021/10/10 09:09:29;;;;;;;;;;;24.30;27.90;;;;;;4343262;33;20048;-39
2021/10/10 09:12:03;;;;;;;;;;;24.20;27.70;;;;;;4343344;33;20434;-38
2021/10/10 09:14:29;;;;;;;;;;;24.30;27.80;;;;;;4344682;32;20020;-40
2021/10/10 09:17:15;;;;;;;;;;;24.40;27.60;;;;;;4358690;32;19990;-39
2021/10/10 09:19:50;;;;;;;;;;;24.70;27.50;;;;;;4345253;32;19978;-39
2021/10/10 09:22:16;;;;;;;;;;;25.00;27.30;;;;;;4357937;32;19982;-38
2021/10/10 09:24:42;;;;;;;;;;;25.40;26.90;;;;;;4357967;32;19967;-39
2021/10/10 09:27:12;;;;;;;;;;;25.80;26.80;;;;;;4357917;32;19966;-37
2021/10/10 09:29:44;;;;;;;;;;;26.10;26.70;;;;;;4345748;32;19962;-38
2021/10/10 09:32:18;;;;;;;;;;;26.20;26.40;;;;;;4358126;32;20057;-40
2021/10/10 09:34:46;;;;;;;;;;;26.40;26.20;;;;;;4357846;32;19966;-38
2021/10/10 09:37:25;;;;;;;;;;;26.50;25.90;;;;;;4358060;32;19975;-38
2021/10/10 09:39:59;;;;;;;;;;;26.80;25.80;;;;;;4358017;32;20129;-37
2021/10/10 09:42:35;;;;;;;;;;;26.90;25.70;;;;;;4342757;33;20399;-38
2021/10/10 09:45:32;;;;;;;;;;;27.10;25.50;;;;;;4342704;33;19970;-37
2021/10/10 09:48:02;;;;;;;;;;;27.30;25.40;;;;;;4327307;33;19999;-37
2021/10/10 09:50:33;;;;;;;;;;;27.40;25.20;;;;;;4328003;33;20002;-38
2021/10/10 09:53:00;;;;;;;;;;;27.40;24.90;;;;;;4328302;33;20074;-38
2021/10/10 09:55:26;;;;;;;;;;;27.50;24.70;;;;;;4327867;33;19983;-38
2021/10/10 09:57:53;;;;;;;;;;;27.70;24.60;;;;;;4315540;33;19983;-38
2021/10/10 10:00:27;;;;;;;;;;;27.90;24.50;;;;;;4327822;33;19963;-37
2021/10/10 10:03:10;;;;;;;;;;;28.10;24.40;;;;;;4327274;33;19987;-37
2021/10/10 10:05:36;;;;;;;;;;;28.20;24.30;;;;;;4327730;33;20450;-36
2021/10/10 10:08:03;;;;;;;;;;;28.40;24.20;;;;;;4315650;33;19986;-38
2021/10/10 10:10:31;;;;;;;;;;;28.50;24.20;;;;;;4315449;33;19999;-38
2021/10/10 10:12:58;;;;;;;;;;;28.60;24.20;;;;;;4333121;33;20407;-37
2021/10/10 10:15:27;;;;;;;;;;;28.60;24.20;;;;;;4345130;32;19997;-37
2021/10/10 10:17:54;;;;;;;;;;;28.50;24.10;;;;;;4345057;32;20495;-37
2021/10/10 10:20:21;;;;;;;;;;;28.20;24.50;;;;;;4355083;32;20407;-38
2021/10/10 10:22:49;;;;;;;;;;;27.90;24.10;;;;;;4360245;32;19996;-37
2021/10/10 10:25:15;;;;;;;;;;;27.70;24.30;;;;;;4345998;32;20056;-38
2021/10/10 10:27:41;;;;;;;;;;;27.60;24.90;;;;;;4288551;33;19983;-38
2021/10/10 10:30:08;;;;;;;;;;;27.60;24.50;;;;;;4313190;33;19979;-38
2021/10/10 10:32:34;;;;;;;;;;;27.60;24.40;;;;;;4300698;33;19979;-38
2021/10/10 10:35:08;;;;;;;;;;;27.70;24.40;;;;;;4300493;33;20051;-37
2021/10/10 10:37:43;;;;;;;;;;;27.70;24.30;;;;;;4300221;33;20086;-39
2021/10/10 10:40:15;;;;;;;;;;;27.50;24.10;;;;;;4312796;33;20134;-39
2021/10/10 10:42:45;;;;;;;;;;;27.20;24.40;;;;;;4313180;33;19994;-38
2021/10/10 10:45:21;;;;;;;;;;;27.00;24.60;;;;;;4313476;33;19967;-39
2021/10/10 10:47:49;;;;;;;;;;;27.10;24.50;;;;;;4327240;33;19978;-37
2021/10/10 10:50:41;;;;;;;;;;;27.30;24.60;;;;;;4327353;33;19986;-38
2021/10/10 10:53:09;;;;;;;;;;;27.50;24.70;;;;;;4326851;33;19982;-38
2021/10/10 10:55:43;;;;;;;;;;;27.50;24.60;;;;;;4327040;33;20393;-39
2021/10/10 10:58:13;;;;;;;;;;;27.40;24.60;;;;;;4336032;32;19966;-37
2021/10/10 11:00:43;;;;;;;;;;;27.30;24.60;;;;;;4358855;32;20488;-37
2021/10/10 11:03:13;;;;;;;;;;;27.40;24.50;;;;;;4358021;32;19958;-40
2021/10/10 11:05:43;;;;;;;;;;;27.20;24.50;;;;;;4358957;32;19963;-38
2021/10/10 11:08:27;;;;;;;;;;;27.10;24.70;;;;;;4359680;32;19958;-39
2021/10/10 11:11:00;;;;;;;;;;;27.00;24.80;;;;;;4358918;32;20032;-38
2021/10/10 11:13:35;;;;;;;;;;;27.00;24.90;;;;;;4359159;32;19994;-37
2021/10/10 11:16:07;;;;;;;;;;;26.90;24.90;;;;;;4341330;32;20026;-37
2021/10/10 11:18:33;;;;;;;;;;;26.90;25.20;;;;;;4341403;33;20173;-38
2021/10/10 11:21:01;;;;;;;;;;;27.00;25.30;;;;;;4329357;33;20067;-39
2021/10/10 11:23:28;;;;;;;;;;;27.00;25.30;;;;;;4341610;33;20011;-37
2021/10/10 11:25:56;;;;;;;;;;;27.00;25.30;;;;;;4341435;33;20054;-38
2021/10/10 11:28:38;;;;;;;;;;;26.90;25.30;;;;;;4341434;33;20454;-37
2021/10/10 11:31:08;;;;;;;;;;;26.80;25.30;;;;;;4341165;33;20156;-37
2021/10/10 11:33:39;;;;;;;;;;;26.80;25.20;;;;;;4341434;33;20006;-38
2021/10/10 11:36:05;;;;;;;;;;;26.80;25.30;;;;;;4341103;33;19999;-39
2021/10/10 11:38:52;;;;;;;;;;;26.80;25.30;;;;;;4341208;33;20058;-40
2021/10/10 11:41:18;;;;;;;;;;;26.80;25.10;;;;;;4341586;33;19978;-38
2021/10/10 11:43:59;;;;;;;;;;;26.80;25.00;;;;;;4329081;33;20507;-37
2021/10/10 11:46:25;;;;;;;;;;;26.80;25.00;;;;;;4341022;32;20067;-38
2021/10/10 11:48:54;;;;;;;;;;;26.70;24.90;;;;;;4358808;32;20401;-38
2021/10/10 11:51:37;;;;;;;;;;;26.70;24.90;;;;;;4358842;32;20407;-37
2021/10/10 11:54:04;;;;;;;;;;;26.60;24.80;;;;;;4358594;32;20410;-37
2021/10/10 11:56:31;;;;;;;;;;;26.60;24.90;;;;;;4358394;32;19970;-37
2021/10/10 11:59:11;;;;;;;;;;;26.60;25.00;;;;;;4344933;32;20458;-38
2021/10/10 12:01:37;;;;;;;;;;;26.60;25.00;;;;;;4358594;32;20065;-37
2021/10/10 12:04:03;;;;;;;;;;;26.50;24.90;;;;;;4358343;32;19966;-37
2021/10/10 12:06:29;;;;;;;;;;;26.40;25.00;;;;;;4358001;32;20371;-37
2021/10/10 12:09:10;;;;;;;;;;;26.30;25.00;;;;;;4358598;32;20058;-39
2021/10/10 12:11:38;;;;;;;;;;;26.20;25.00;;;;;;4358654;32;20048;-40
2021/10/10 12:14:04;;;;;;;;;;;26.10;24.90;;;;;;4358207;32;19958;-40
2021/10/10 12:16:43;;;;;;;;;;;26.10;25.00;;;;;;4358168;32;20443;-39
2021/10/10 12:19:10;;;;;;;;;;;26.10;25.00;;;;;;4358245;32;19975;-38
2021/10/10 12:21:37;;;;;;;;;;;25.90;24.80;;;;;;4358375;32;19977;-38
2021/10/10 12:24:14;;;;;;;;;;;25.80;24.60;;;;;;4358449;32;20445;-38
2021/10/10 12:26:44;;;;;;;;;;;25.50;24.40;;;;;;4358284;32;20007;-37
2021/10/10 12:29:29;;;;;;;;;;;25.20;24.60;;;;;;4361206;32;20044;-38
2021/10/10 12:32:16;;;;;;;;;;;25.20;25.00;;;;;;4360979;32;19985;-37
2021/10/10 12:34:42;;;;;;;;;;;25.10;25.40;;;;;;4360959;32;19985;-38
2021/10/10 12:37:22;;;;;;;;;;;25.00;25.70;;;;;;4360957;32;20355;-38
2021/10/10 12:39:48;;;;;;;;;;;24.90;25.80;;;;;;4328591;33;19987;-40
2021/10/10 12:42:18;;;;;;;;;;;24.90;25.80;;;;;;4329002;33;20007;-37
2021/10/10 12:45:19;;;;;;;;;;;24.70;25.90;;;;;;4329052;33;20047;-38
2021/10/10 12:47:46;;;;;;;;;;;24.50;26.30;;;;;;4328767;33;20011;-39
2021/10/10 12:50:12;;;;;;;;;;;24.50;26.60;;;;;;4328931;33;19963;-38
2021/10/10 12:52:40;;;;;;;;;;;24.40;26.80;;;;;;4328749;33;19970;-38
2021/10/10 12:55:07;;;;;;;;;;;24.30;26.80;;;;;;4329034;33;20176;-37
2021/10/10 12:57:39;;;;;;;;;;;24.20;26.90;;;;;;4328654;33;19963;-38
2021/10/10 13:00:07;;;;;;;;;;;24.10;27.10;;;;;;4328759;33;19977;-38
2021/10/10 13:02:33;;;;;;;;;;;24.00;26.90;;;;;;4316774;33;19970;-39
2021/10/10 13:04:59;;;;;;;;;;;24.00;27.00;;;;;;4328307;33;19990;-38
2021/10/10 13:07:25;;;;;;;;;;;23.90;27.00;;;;;;4328512;33;19974;-38
2021/10/10 13:09:53;;;;;;;;;;;23.80;27.00;;;;;;4331843;32;19982;-37
2021/10/10 13:12:20;;;;;;;;;;;23.80;27.10;;;;;;4346015;32;19980;-37
2021/10/10 13:14:47;;;;;;;;;;;23.80;27.10;;;;;;4358785;32;20051;-38
2021/10/10 13:17:14;;;;;;;;;;;23.70;27.10;;;;;;4358038;32;20034;-38
2021/10/10 13:19:40;;;;;;;;;;;23.60;27.10;;;;;;4357762;32;21152;-37
2021/10/10 13:22:08;;;;;;;;;;;23.60;27.30;;;;;;4358034;32;19970;-39
2021/10/10 13:24:34;;;;;;;;;;;23.50;27.40;;;;;;4358162;32;20390;-37
2021/10/10 13:27:00;;;;;;;;;;;23.40;27.70;;;;;;4360222;32;19958;-38
2021/10/10 13:29:26;;;;;;;;;;;23.30;27.90;;;;;;4360366;32;19994;-37
2021/10/10 13:31:52;;;;;;;;;;;23.20;28.00;;;;;;4360644;32;19990;-37
2021/10/10 13:34:19;;;;;;;;;;;23.20;28.10;;;;;;4360276;32;20382;-38
2021/10/10 13:36:49;;;;;;;;;;;23.10;28.70;;;;;;4360157;32;19978;-37
2021/10/10 13:39:15;;;;;;;;;;;23.10;28.30;;;;;;4360076;32;20139;-38
2021/10/10 13:41:41;;;;;;;;;;;23.10;28.30;;;;;;4360346;32;19971;-36
2021/10/10 13:44:07;;;;;;;;;;;23.00;28.30;;;;;;4360257;32;19961;-38
2021/10/10 13:46:36;;;;;;;;;;;22.90;28.40;;;;;;4369091;32;19977;-38
2021/10/10 13:49:04;;;;;;;;;;;22.80;28.60;;;;;;4327689;33;20056;-38
2021/10/10 13:51:30;;;;;;;;;;;22.60;28.70;;;;;;4328116;33;19975;-38
2021/10/10 13:53:56;;;;;;;;;;;22.50;28.90;;;;;;4328148;33;20030;-37
2021/10/10 13:56:23;;;;;;;;;;;22.40;29.00;;;;;;4328428;33;19975;-38
2021/10/10 13:58:49;;;;;;;;;;;22.40;29.10;;;;;;4328403;33;20001;-37
2021/10/10 14:01:15;;;;;;;;;;;22.50;29.10;;;;;;4327975;33;19967;-38
2021/10/10 14:03:42;;;;;;;;;;;22.50;29.00;;;;;;4315495;33;19971;-38
2021/10/10 14:06:08;;;;;;;;;;;22.40;29.00;;;;;;4315649;33;20072;-37
2021/10/10 14:08:35;;;;;;;;;;;22.40;29.00;;;;;;4327970;33;19977;-38
2021/10/10 14:11:01;;;;;;;;;;;22.30;29.00;;;;;;4327720;33;19970;-38
2021/10/10 14:13:27;;;;;;;;;;;22.30;29.20;;;;;;4327947;33;19999;-38
2021/10/10 14:15:53;;;;;;;;;;;22.30;29.20;;;;;;4327740;33;19975;-39
2021/10/10 14:18:20;;;;;;;;;;;22.20;29.10;;;;;;4328074;33;19985;-37
2021/10/10 14:20:47;;;;;;;;;;;22.10;29.10;;;;;;4365131;32;20065;-39
2021/10/10 14:23:13;;;;;;;;;;;22.00;29.00;;;;;;4374743;32;20098;-38
2021/10/10 14:25:40;;;;;;;;;;;21.80;29.00;;;;;;4374228;32;20378;-38
2021/10/10 14:28:07;;;;;;;;;;;21.50;29.10;;;;;;4374845;32;20059;-37
2021/10/10 14:30:33;;;;;;;;;;;21.20;29.30;;;;;;4360865;32;19978;-37